Time;durP1;ratioP1;P1;durP2;ratioP2;P2;SDS_P1;SDS_P2;PMS_P1;PMS_P2;Temp;Humidity;BMP_temperature;BMP_pressure;BME280_temperature;BME280_humidity;BME280_pressure;Samples;Min_cycle;Max_cycle;Signal;HPM_P1;HPM_P2
2022/10/08 00:00:48;;;;;;;10.88;6.55;;;;;;;12.22;60.23;100923.97;5033668;28;20044;-32
2022/10/08 00:03:16;;;;;;;11.18;7.07;;;;;;;12.19;60.10;100907.25;5049534;28;20118;-32
2022/10/08 00:05:42;;;;;;;10.57;7.18;;;;;;;12.18;60.32;100918.72;5052783;28;20028;-32
2022/10/08 00:08:08;;;;;;;9.57;6.57;;;;;;;12.17;60.35;100911.69;5052347;28;20033;-32
2022/10/08 00:10:35;;;;;;;9.63;6.82;;;;;;;12.16;60.16;100924.91;5066129;28;20029;-32
2022/10/08 00:13:02;;;;;;;10.15;6.72;;;;;;;12.14;60.51;100917.00;5055706;28;20429;-32
2022/10/08 00:15:27;;;;;;;9.82;6.60;;;;;;;12.13;60.63;100924.94;5047113;28;20027;-32
2022/10/08 00:17:53;;;;;;;10.45;6.43;;;;;;;12.12;60.33;100913.50;5044110;28;20403;-32
2022/10/08 00:20:19;;;;;;;10.38;6.60;;;;;;;12.10;60.25;100914.44;5040582;28;20020;-32
2022/10/08 00:22:48;;;;;;;11.15;6.50;;;;;;;12.08;60.61;100917.09;5054595;28;20016;-32
2022/10/08 00:25:13;;;;;;;10.98;6.60;;;;;;;12.08;60.61;100918.84;5060925;28;20020;-32
2022/10/08 00:27:39;;;;;;;11.15;6.45;;;;;;;12.05;60.48;100923.25;5052846;28;20029;-32
2022/10/08 00:30:05;;;;;;;9.40;6.20;;;;;;;12.03;60.37;100925.03;5051755;28;20066;-32
2022/10/08 00:32:30;;;;;;;9.73;6.50;;;;;;;12.03;60.43;100925.03;5050976;28;20028;-32
2022/10/08 00:34:56;;;;;;;9.02;6.28;;;;;;;12.01;60.77;100923.31;5052154;28;20151;-32
2022/10/08 00:37:22;;;;;;;9.75;6.05;;;;;;;12.00;60.38;100921.56;5061492;28;20516;-32
2022/10/08 00:39:47;;;;;;;9.18;6.03;;;;;;;11.99;60.37;100911.84;5017911;28;20036;-32
2022/10/08 00:42:13;;;;;;;9.50;6.22;;;;;;;11.97;60.75;100906.59;5053713;28;20036;-32
2022/10/08 00:44:56;;;;;;;8.68;6.22;;;;;;;11.96;60.66;100907.50;5051454;28;20086;-32
2022/10/08 00:47:31;;;;;;;10.25;6.15;;;;;;;11.93;60.66;100908.41;5047307;28;20056;-32
2022/10/08 00:50:08;;;;;;;9.75;5.95;;;;;;;11.93;60.61;100908.41;5056213;28;20116;-32
2022/10/08 00:52:36;;;;;;;9.70;6.20;;;;;;;11.90;60.93;100903.13;5051863;28;20036;-32
2022/10/08 00:55:05;;;;;;;9.18;6.70;;;;;;;11.89;60.84;100903.16;5041891;28;20364;-32
2022/10/08 00:57:32;;;;;;;10.68;6.00;;;;;;;11.88;61.02;100899.66;5050334;28;20040;-32
2022/10/08 00:59:57;;;;;;;9.27;5.90;;;;;;;11.87;61.13;100897.88;5056240;28;20055;-32
2022/10/08 01:02:23;;;;;;;9.18;5.78;;;;;;;11.85;61.44;100899.69;5030096;28;20068;-32
2022/10/08 01:04:48;;;;;;;7.88;5.53;;;;;;;11.85;61.34;100894.41;5054113;28;20025;-32
2022/10/08 01:07:50;;;;;;;9.48;5.88;;;;;;;11.83;61.24;100900.59;5031004;28;20071;-32
2022/10/08 01:10:40;;;;;;;9.52;5.53;;;;;;;11.81;61.06;100892.69;5030646;28;20025;-32
2022/10/08 01:13:14;;;;;;;8.73;5.70;;;;;;;11.82;61.59;100891.78;5043485;28;20018;-32
2022/10/08 01:15:59;;;;;;;8.25;5.70;;;;;;;11.82;61.54;100894.44;5046994;28;20033;-31
2022/10/08 01:18:42;;;;;;;8.35;5.45;;;;;;;11.81;61.57;100892.69;5046022;28;20024;-31
2022/10/08 01:21:12;;;;;;;8.13;5.68;;;;;;;11.80;61.20;100880.34;5057784;28;20021;-32
2022/10/08 01:23:40;;;;;;;;;;;;;;;11.78;61.34;100883.00;5032077;28;20129;-32
2022/10/08 01:26:08;;;;;;;9.45;5.65;;;;;;;11.77;61.47;100880.41;5052300;28;19912;-32
2022/10/08 01:28:39;;;;;;;7.10;5.32;;;;;;;11.78;61.68;100884.78;5050277;28;20112;-33
2022/10/08 01:31:08;;;;;;;8.57;5.53;;;;;;;11.76;61.58;100889.19;5049036;28;20024;-32
2022/10/08 01:33:44;;;;;;;7.80;5.63;;;;;;;11.76;61.68;100889.19;5044211;28;20075;-33
2022/10/08 01:36:12;;;;;;;8.90;5.57;;;;;;;11.74;61.54;100883.06;5030262;28;20025;-32
2022/10/08 01:38:40;;;;;;;10.23;6.47;;;;;;;11.75;61.50;100882.16;5028278;28;20094;-31
2022/10/08 01:41:08;;;;;;;8.32;5.70;;;;;;;11.74;61.49;100885.72;5050463;28;20048;-32
2022/10/08 01:43:37;;;;;;;8.13;5.30;;;;;;;11.74;61.58;100877.78;5032870;28;20028;-30
2022/10/08 01:46:09;;;;;;;10.48;5.70;;;;;;;11.72;61.38;100871.63;5050084;28;20501;-31
2022/10/08 01:48:37;;;;;;;9.68;5.95;;;;;;;11.71;61.46;100880.44;5044255;28;20033;-31
2022/10/08 01:51:07;;;;;;;9.13;5.70;;;;;;;11.69;61.54;100875.19;5046340;28;20036;-31
2022/10/08 01:53:37;;;;;;;8.27;5.60;;;;;;;11.70;61.65;100876.06;5051170;28;20055;-31
2022/10/08 01:56:03;;;;;;;;;;;;;;;11.66;61.50;100873.44;5049166;28;20434;-32
2022/10/08 01:58:35;;;;;;;8.70;6.05;;;;;;;11.65;61.90;100870.81;5056719;28;20366;-32
2022/10/08 02:01:15;;;;;;;10.18;6.32;;;;;;;11.64;61.42;100869.09;5036646;28;20032;-31
2022/10/08 02:04:31;;;;;;;9.50;5.82;;;;;;;11.62;61.53;100866.44;5056171;28;20063;-32
2022/10/08 02:06:26;;;;;;;8.98;5.93;;;;;;;11.58;61.93;100859.47;5040567;28;20539;-32
2022/10/08 02:08:52;;;;;;;7.88;5.78;;;;;;;11.58;61.66;100854.16;5061801;28;20028;-32
2022/10/08 02:11:17;;;;;;;10.15;6.15;;;;;;;11.59;62.21;100855.91;5051206;28;20029;-31
2022/10/08 02:13:43;;;;;;;10.20;5.53;;;;;;;11.57;61.61;100856.81;5053778;28;20368;-33
2022/10/08 02:16:16;;;;;;;9.20;5.47;;;;;;;11.55;62.15;100855.06;5064792;28;20021;-32
2022/10/08 02:18:48;;;;;;;7.95;5.45;;;;;;;11.54;61.87;100857.75;5047804;28;20032;-31
2022/10/08 02:21:33;;;;;;;7.55;5.28;;;;;;;11.55;62.02;100859.47;5050012;28;20426;-31
2022/10/08 02:24:22;;;;;;;8.77;5.47;;;;;;;11.53;62.17;100850.69;5035067;28;20045;-31
2022/10/08 02:26:50;;;;;;;9.30;5.65;;;;;;;11.53;62.41;100858.59;5013184;28;20021;-31
2022/10/08 02:29:19;;;;;;;8.25;5.72;;;;;;;11.53;61.90;100856.84;5034039;28;20074;-31
2022/10/08 02:31:55;;;;;;;6.82;5.25;;;;;;;11.54;62.37;100863.88;5047357;28;20029;-31
2022/10/08 02:34:26;;;;;;;8.48;5.38;;;;;;;11.53;61.95;100854.22;5050202;28;20060;-31
2022/10/08 02:37:00;;;;;;;8.88;5.60;;;;;;;11.53;62.16;100858.59;5052734;28;20029;-31
2022/10/08 02:39:28;;;;;;;9.73;5.32;;;;;;;11.52;62.48;100859.50;5040149;28;20029;-32
2022/10/08 02:41:56;;;;;;;9.25;5.50;;;;;;;11.50;62.04;100862.16;5036444;28;20032;-32
2022/10/08 02:44:46;;;;;;;7.85;5.70;;;;;;;11.49;62.17;100856.88;5036379;28;20036;-32
2022/10/08 02:47:15;;;;;;;8.40;6.15;;;;;;;11.48;62.30;100855.16;5045281;28;20040;-32
2022/10/08 02:49:49;;;;;;;8.27;5.40;;;;;;;11.46;62.22;100852.50;5051951;28;20040;-32
2022/10/08 02:52:16;;;;;;;9.18;5.85;;;;;;;11.47;62.18;100871.88;5052891;28;20033;-32
2022/10/08 02:54:43;;;;;;;8.75;5.45;;;;;;;11.48;62.41;100863.06;5036908;28;20029;-32
2022/10/08 02:57:17;;;;;;;9.13;5.53;;;;;;;11.47;62.10;100869.25;5058144;28;20084;-32
2022/10/08 02:59:44;;;;;;;9.15;5.53;;;;;;;11.47;62.28;100871.88;5052906;28;20029;-32
2022/10/08 03:02:14;;;;;;;9.93;6.38;;;;;;;11.46;62.02;100875.41;5049646;28;20408;-32
2022/10/08 03:04:47;;;;;;;9.45;5.43;;;;;;;11.45;62.12;100890.41;5037145;28;20025;-32
2022/10/08 03:07:14;;;;;;;9.20;5.15;;;;;;;11.44;62.51;100883.34;5056787;28;20029;-32
2022/10/08 03:09:42;;;;;;;8.15;5.60;;;;;;;11.41;62.28;100873.69;5056209;28;20057;-32
2022/10/08 03:12:07;;;;;;;8.20;5.75;;;;;;;11.45;62.02;100884.22;5038017;28;20029;-32
2022/10/08 03:14:36;;;;;;;8.93;5.78;;;;;;;11.41;62.21;100878.97;5035456;28;20070;-32
2022/10/08 03:17:01;;;;;;;7.38;4.95;;;;;;;11.41;62.44;100884.25;5054752;28;20047;-33
2022/10/08 03:19:27;;;;;;;8.23;5.30;;;;;;;11.42;62.41;100874.56;5048717;28;20029;-32
2022/10/08 03:21:53;;;;;;;8.05;5.25;;;;;;;11.40;62.62;100882.50;5036901;28;20079;-31
2022/10/08 03:24:19;;;;;;;8.85;5.35;;;;;;;11.39;62.60;100880.75;5035991;28;20029;-31
2022/10/08 03:26:44;;;;;;;8.57;5.15;;;;;;;11.39;62.11;100874.59;5053321;28;20039;-32
2022/10/08 03:29:11;;;;;;;9.32;5.45;;;;;;;11.38;62.23;100876.38;5046708;28;20048;-31
2022/10/08 03:31:37;;;;;;;7.03;5.22;;;;;;;11.38;62.38;100864.94;5051051;28;20036;-31
2022/10/08 03:34:03;;;;;;;7.97;5.30;;;;;;;11.37;62.02;100877.25;5049467;28;20033;-31
2022/10/08 03:36:28;;;;;;;7.75;5.53;;;;;;;11.37;62.43;100877.25;5060561;28;20471;-32
2022/10/08 03:38:54;;;;;;;7.47;5.65;;;;;;;11.36;62.55;100875.50;5051120;28;20499;-33
2022/10/08 03:41:19;;;;;;;9.25;5.50;;;;;;;11.36;62.27;100871.97;5051365;28;20032;-33
2022/10/08 03:43:45;;;;;;;7.50;5.45;;;;;;;11.35;62.42;100871.13;5051137;28;20021;-32
2022/10/08 03:46:12;;;;;;;7.82;5.30;;;;;;;11.34;62.15;100861.41;5062346;28;20471;-31
2022/10/08 03:48:38;;;;;;;8.65;5.63;;;;;;;11.33;62.05;100880.81;5058265;28;20033;-32
2022/10/08 03:51:09;;;;;;;8.35;5.28;;;;;;;11.32;62.02;100881.69;5055874;28;20048;-32
2022/10/08 03:53:37;;;;;;;8.43;5.50;;;;;;;11.31;62.16;100877.31;5032752;28;20025;-32
2022/10/08 03:56:04;;;;;;;7.13;5.00;;;;;;;11.29;62.09;100879.09;5034366;28;20028;-32
2022/10/08 03:58:30;;;;;;;7.82;4.78;;;;;;;11.29;61.99;100877.34;5050379;28;20027;-32
2022/10/08 04:01:00;;;;;;;9.52;5.70;;;;;;;11.27;62.00;100880.88;5045833;28;20025;-32
2022/10/08 04:03:26;;;;;;;8.20;5.07;;;;;;;11.26;61.70;100881.75;5046315;28;20025;-33
2022/10/08 04:05:52;;;;;;;8.02;5.05;;;;;;;11.24;62.27;100879.13;5027820;28;20021;-33
2022/10/08 04:08:18;;;;;;;8.15;5.30;;;;;;;11.24;62.16;100883.53;5051143;28;20029;-33
2022/10/08 04:10:43;;;;;;;9.35;5.30;;;;;;;11.24;62.39;100880.91;5049597;28;20383;-33
2022/10/08 04:13:09;;;;;;;9.77;5.47;;;;;;;11.21;62.39;100888.84;5051228;28;20108;-32
2022/10/08 04:15:34;;;;;;;7.90;5.93;;;;;;;11.20;62.00;100887.09;5052408;28;20157;-32
2022/10/08 04:17:59;;;;;;;9.10;4.90;;;;;;;11.18;62.03;100887.09;5053111;28;20072;-32
2022/10/08 04:20:25;;;;;;;7.50;5.53;;;;;;;11.17;61.98;100895.88;5054909;28;20071;-32
2022/10/08 04:22:50;;;;;;;8.55;5.25;;;;;;;11.16;62.05;100894.16;5051432;28;20287;-31
2022/10/08 04:25:16;;;;;;;7.17;5.23;;;;;;;11.14;62.38;100896.78;5045992;28;20362;-31
2022/10/08 04:27:41;;;;;;;7.32;4.68;;;;;;;11.14;62.23;100896.78;5025795;28;20650;-32
2022/10/08 04:30:07;;;;;;;8.07;5.18;;;;;;;11.11;62.12;100912.66;5060435;28;20017;-32
2022/10/08 04:32:32;;;;;;;7.75;5.10;;;;;;;11.10;62.16;100908.28;5046479;28;20029;-32
2022/10/08 04:34:58;;;;;;;9.38;5.85;;;;;;;11.10;62.11;100905.63;5059305;28;20471;-32
2022/10/08 04:37:23;;;;;;;7.80;4.90;;;;;;;11.07;62.34;100899.50;5053365;28;20514;-32
2022/10/08 04:39:48;;;;;;;7.85;4.95;;;;;;;11.07;62.18;100905.66;5051119;28;20107;-32
2022/10/08 04:42:14;;;;;;;7.35;5.15;;;;;;;11.03;62.65;100896.88;5052123;28;20029;-32
2022/10/08 04:44:40;;;;;;;6.93;4.85;;;;;;;11.04;62.30;100900.41;5038621;28;20466;-32
2022/10/08 04:47:05;;;;;;;8.18;5.22;;;;;;;11.03;62.26;100898.63;5034123;28;20031;-32
2022/10/08 04:49:31;;;;;;;7.82;4.90;;;;;;;11.01;62.88;100903.06;5042667;28;20024;-32
2022/10/08 04:51:56;;;;;;;7.28;5.10;;;;;;;11.03;62.56;100901.28;5052735;28;20502;-32
2022/10/08 04:54:22;;;;;;;8.57;4.88;;;;;;;11.01;62.77;100897.78;5049095;28;20044;-32
2022/10/08 04:56:47;;;;;;;8.82;5.03;;;;;;;10.99;63.05;100899.56;5048857;28;20151;-32
2022/10/08 04:59:13;;;;;;;7.10;5.20;;;;;;;10.98;62.89;100895.16;5055771;28;20030;-32
2022/10/08 05:01:38;;;;;;;7.82;4.85;;;;;;;10.97;62.82;100901.34;5030606;28;20297;-32
2022/10/08 05:04:03;;;;;;;7.35;4.57;;;;;;;10.96;62.87;100903.09;5052472;28;20079;-32
2022/10/08 05:06:30;;;;;;;6.93;5.30;;;;;;;10.93;62.89;100896.97;5051938;28;20017;-32
2022/10/08 05:08:57;;;;;;;6.90;5.05;;;;;;;10.91;62.89;100897.84;5035391;28;20115;-32
2022/10/08 05:11:23;;;;;;;9.93;4.95;;;;;;;10.90;62.71;100901.38;5047655;28;20043;-32
2022/10/08 05:13:50;;;;;;;8.25;5.22;;;;;;;10.87;62.76;100906.66;5050846;28;20024;-32
2022/10/08 05:16:17;;;;;;;6.97;5.07;;;;;;;10.86;62.79;100915.47;5052017;28;20442;-32
2022/10/08 05:18:42;;;;;;;6.85;5.10;;;;;;;10.86;62.66;100912.84;5051880;28;20090;-32
2022/10/08 05:21:14;;;;;;;7.88;5.00;;;;;;;10.86;63.09;100915.47;5031871;28;20036;-32
2022/10/08 05:23:41;;;;;;;8.57;4.90;;;;;;;10.84;63.17;100917.22;5027914;28;20462;-32
2022/10/08 05:26:15;;;;;;;7.30;5.18;;;;;;;10.85;63.33;100921.66;5047047;28;20472;-32
2022/10/08 05:28:42;;;;;;;7.90;4.90;;;;;;;10.84;63.21;100919.88;5041799;28;20037;-32
2022/10/08 05:31:07;;;;;;;6.43;4.65;;;;;;;10.81;63.29;100922.56;5044636;28;20033;-32
2022/10/08 05:33:34;;;;;;;7.50;4.47;;;;;;;10.81;63.51;100925.19;5044457;28;20036;-32
2022/10/08 05:36:03;;;;;;;7.53;4.80;;;;;;;10.82;63.31;100923.41;5056677;28;20531;-32
2022/10/08 05:38:28;;;;;;;7.93;4.80;;;;;;;10.78;63.15;100930.50;5048442;28;20055;-32
2022/10/08 05:40:54;;;;;;;7.95;4.63;;;;;;;10.79;63.67;100942.78;5051603;28;20462;-32
2022/10/08 05:43:19;;;;;;;6.77;5.00;;;;;;;10.75;63.53;100934.03;5051398;28;20535;-32
2022/10/08 05:45:49;;;;;;;6.82;4.40;;;;;;;10.75;64.01;100936.66;5034317;28;20838;-32
2022/10/08 05:48:14;;;;;;;;;;;;;;;10.73;63.68;100938.41;5051248;28;20079;-32
2022/10/08 05:50:39;;;;;;;7.93;4.60;;;;;;;10.74;63.96;100936.66;5048280;28;20414;-32
2022/10/08 05:53:05;;;;;;;6.57;4.55;;;;;;;10.72;64.26;100934.03;5044364;28;20090;-32
2022/10/08 05:55:31;;;;;;;7.15;4.75;;;;;;;10.72;64.19;100941.06;5054774;28;20059;-32
2022/10/08 05:57:56;;;;;;;6.20;4.47;;;;;;;10.71;64.89;100936.69;5055999;28;20116;-32
2022/10/08 06:00:21;;;;;;;8.02;4.72;;;;;;;10.71;64.58;100944.59;5036898;28;20028;-32
2022/10/08 06:02:48;;;;;;;6.72;4.97;;;;;;;10.70;64.90;100956.03;5046747;28;20052;-32
2022/10/08 06:05:14;;;;;;;6.57;4.60;;;;;;;10.71;65.19;100948.09;5053239;28;20029;-32
2022/10/08 06:07:40;;;;;;;8.75;5.20;;;;;;;10.71;65.80;100952.50;5050730;28;20043;-32
2022/10/08 06:10:06;;;;;;;8.38;5.07;;;;;;;10.73;65.98;100948.97;5048348;28;20029;-32
2022/10/08 06:12:31;;;;;;;10.85;5.78;;;;;;;10.74;66.41;100945.44;5066437;28;20293;-32
2022/10/08 06:14:56;;;;;;;7.80;5.38;;;;;;;10.74;66.33;100948.06;5046391;28;20468;-32
2022/10/08 06:17:22;;;;;;;8.95;5.95;;;;;;;10.75;66.40;100951.59;5033659;28;20060;-32
2022/10/08 06:19:48;;;;;;;8.00;5.35;;;;;;;10.74;66.10;100952.50;5042188;28;20024;-32
2022/10/08 06:22:13;;;;;;;9.07;5.95;;;;;;;10.74;65.42;100952.50;5074164;28;20171;-32
2022/10/08 06:24:38;;;;;;;9.90;5.13;;;;;;;10.76;65.20;100958.63;5075395;28;20103;-32
2022/10/08 06:27:04;;;;;;;8.95;5.25;;;;;;;10.76;64.64;100958.63;5050157;28;20025;-32
2022/10/08 06:29:29;;;;;;;9.75;5.13;;;;;;;10.75;64.33;100956.88;5055358;28;20052;-32
2022/10/08 06:31:55;;;;;;;8.65;4.97;;;;;;;10.77;64.17;100957.72;5050169;28;20395;-32
2022/10/08 06:34:20;;;;;;;7.90;4.75;;;;;;;10.79;64.33;100969.16;5050268;28;20078;-32
2022/10/08 06:36:46;;;;;;;8.70;5.25;;;;;;;10.81;64.71;100967.41;5053418;28;20044;-32
2022/10/08 06:39:13;;;;;;;12.90;5.53;;;;;;;10.82;63.93;100971.78;5049967;28;20025;-32
2022/10/08 06:41:39;;;;;;;10.38;4.97;;;;;;;10.82;63.88;100977.06;5051432;28;20029;-32
2022/10/08 06:44:06;;;;;;;8.60;5.38;;;;;;;10.82;63.72;100974.44;5025620;28;20475;-32
2022/10/08 06:46:32;;;;;;;10.48;5.50;;;;;;;10.82;63.64;100977.06;5041242;28;20023;-31
2022/10/08 06:48:59;;;;;;;7.90;5.18;;;;;;;10.83;64.11;100984.09;5050220;28;20025;-31
2022/10/08 06:51:25;;;;;;;8.43;5.70;;;;;;;10.84;64.91;100974.44;5033456;28;20033;-31
2022/10/08 06:53:53;;;;;;;7.93;5.47;;;;;;;10.85;66.15;100965.63;5052614;28;20078;-31
2022/10/08 06:56:19;;;;;;;8.80;5.10;;;;;;;10.84;66.43;100967.38;5052971;28;20029;-31
2022/10/08 06:58:46;;;;;;;9.43;5.75;;;;;;;10.85;66.58;100974.44;5062763;28;20027;-31
2022/10/08 07:01:14;;;;;;;7.35;4.90;;;;;;;10.84;67.38;100975.28;5037638;28;20111;-31
2022/10/08 07:03:39;;;;;;;8.88;5.15;;;;;;;10.86;67.88;100975.28;5037596;28;20052;-31
2022/10/08 07:06:08;;;;;;;10.27;4.90;;;;;;;10.88;68.06;100978.81;5055384;28;20075;-31
2022/10/08 07:08:37;;;;;;;10.93;4.97;;;;;;;10.88;68.43;100979.66;5055522;28;20028;-31
2022/10/08 07:11:16;;;;;;;8.85;5.50;;;;;;;10.88;68.88;100992.00;5066360;28;20403;-31
2022/10/08 07:13:42;;;;;;;8.73;5.75;;;;;;;10.91;68.96;101000.75;5073964;28;20098;-31
2022/10/08 07:16:17;;;;;;;11.35;5.40;;;;;;;10.96;68.45;100997.22;5057488;28;20024;-31
2022/10/08 07:18:43;;;;;;;8.65;4.78;;;;;;;11.00;68.75;100993.66;5042557;28;20285;-31
2022/10/08 07:21:11;;;;;;;8.32;5.20;;;;;;;11.02;68.67;101002.47;5054406;28;20055;-31
2022/10/08 07:23:37;;;;;;;11.73;4.78;;;;;;;11.01;69.17;100996.31;5063205;28;20487;-31
2022/10/08 07:26:05;;;;;;;8.77;5.05;;;;;;;11.02;70.48;100997.19;5071032;28;20021;-31
2022/10/08 07:28:33;;;;;;;9.55;5.38;;;;;;;11.04;71.02;100995.44;5072056;28;20027;-31
2022/10/08 07:31:03;;;;;;;8.82;4.82;;;;;;;11.07;71.24;100994.53;5059738;28;20039;-31
2022/10/08 07:33:29;;;;;;;9.85;5.05;;;;;;;11.11;69.98;101001.53;5052998;28;20372;-31
2022/10/08 07:35:54;;;;;;;8.23;5.03;;;;;;;11.15;69.46;101004.16;5052291;28;20491;-31
2022/10/08 07:38:20;;;;;;;11.32;4.55;;;;;;;11.19;70.67;100997.09;5068560;28;20047;-31
2022/10/08 07:40:47;;;;;;;8.68;4.60;;;;;;;11.21;71.24;100997.97;5065502;28;20029;-32
2022/10/08 07:43:12;;;;;;;7.97;4.45;;;;;;;11.25;71.68;101002.34;5069955;28;20025;-32
2022/10/08 07:45:44;;;;;;;10.02;5.00;;;;;;;11.29;71.83;101005.81;5032347;28;20086;-32
2022/10/08 07:48:10;;;;;;;8.43;4.32;;;;;;;11.31;72.19;101009.34;5034825;28;20120;-32
2022/10/08 07:50:35;;;;;;;8.68;4.18;;;;;;;11.37;72.84;101003.16;5041428;28;20454;-32
2022/10/08 07:53:01;;;;;;;9.93;4.65;;;;;;;11.41;73.34;100991.66;5068898;28;20024;-32
2022/10/08 07:55:26;;;;;;;6.75;4.38;;;;;;;11.47;73.50;100996.03;5071689;28;20050;-32
2022/10/08 07:57:53;;;;;;;10.88;4.20;;;;;;;11.54;73.53;101010.94;5047732;28;20495;-32
2022/10/08 08:00:18;;;;;;;7.50;4.38;;;;;;;11.59;73.53;101009.13;5043166;28;20025;-32
2022/10/08 08:02:46;;;;;;;9.20;4.38;;;;;;;11.67;73.81;101012.59;5031585;28;20036;-32
2022/10/08 08:05:12;;;;;;;8.30;4.05;;;;;;;11.73;74.26;101016.06;5042601;28;20079;-32
2022/10/08 08:07:38;;;;;;;9.38;3.92;;;;;;;11.79;74.19;101021.28;5053003;28;20483;-32
2022/10/08 08:10:03;;;;;;;9.27;3.90;;;;;;;11.87;74.15;101011.53;5052493;28;20036;-32
2022/10/08 08:12:29;;;;;;;7.32;3.47;;;;;;;11.97;73.91;101019.38;5035059;28;20025;-32
2022/10/08 08:14:54;;;;;;;10.52;3.78;;;;;;;12.03;73.32;101024.59;5052849;28;20029;-31
2022/10/08 08:17:20;;;;;;;8.30;3.50;;;;;;;12.11;72.93;101030.75;5052546;28;20064;-32
2022/10/08 08:19:45;;;;;;;8.80;3.67;;;;;;;12.18;72.32;101021.84;5047757;28;20024;-32
2022/10/08 08:22:11;;;;;;;7.72;3.40;;;;;;;12.29;72.47;101031.44;5055014;28;20048;-31
2022/10/08 08:24:36;;;;;;;5.93;2.95;;;;;;;12.34;71.45;101021.66;5054649;28;20036;-34
2022/10/08 08:27:02;;;;;;;7.78;3.10;;;;;;;12.42;71.81;101022.50;5030384;28;20009;-32
2022/10/08 08:29:27;;;;;;;7.22;2.90;;;;;;;12.51;71.51;101017.97;5048157;28;20051;-31
2022/10/08 08:31:53;;;;;;;7.43;2.72;;;;;;;12.58;71.37;101009.09;5045493;28;20036;-31
2022/10/08 08:34:20;;;;;;;7.35;2.30;;;;;;;12.66;70.70;101015.16;5023419;28;20041;-32
2022/10/08 08:36:48;;;;;;;6.13;2.78;;;;;;;12.73;70.20;101009.78;5055962;28;20016;-31
2022/10/08 08:39:18;;;;;;;6.20;2.53;;;;;;;12.79;69.87;101010.59;5056496;28;20024;-32
2022/10/08 08:42:00;;;;;;;8.13;2.95;;;;;;;12.88;69.15;101009.59;5042068;28;20025;-32
2022/10/08 08:44:33;;;;;;;5.57;2.63;;;;;;;12.96;69.57;101015.66;5052250;28;20476;-33
2022/10/08 08:47:03;;;;;;;5.82;2.60;;;;;;;13.03;69.50;101023.50;5051729;28;20383;-33
2022/10/08 08:49:44;;;;;;;6.60;2.80;;;;;;;13.11;69.97;101023.41;5052114;28;20040;-33
2022/10/08 08:52:15;;;;;;;5.78;2.60;;;;;;;13.19;69.32;101024.16;5059939;28;20017;-32
2022/10/08 08:54:44;;;;;;;6.10;2.30;;;;;;;13.24;68.49;101034.69;5040182;28;20029;-33
2022/10/08 08:57:47;;;;;;;4.00;2.40;;;;;;;13.31;67.76;101034.56;5051371;28;20021;-33
2022/10/08 09:00:15;;;;;;;5.70;2.20;;;;;;;13.39;68.09;101046.81;5049993;28;20060;-33
2022/10/08 09:02:55;;;;;;;5.40;2.63;;;;;;;13.42;67.68;101042.38;5051115;28;20028;-33
2022/10/08 09:05:21;;;;;;;6.18;2.53;;;;;;;13.50;67.43;101054.66;5039916;28;20475;-33
2022/10/08 09:07:50;;;;;;;8.18;2.58;;;;;;;13.53;67.12;101060.78;5065443;28;20064;-32
2022/10/08 09:10:19;;;;;;;8.45;2.58;;;;;;;13.59;66.52;101062.47;5035587;28;20084;-33
2022/10/08 09:12:45;;;;;;;7.65;2.30;;;;;;;13.62;66.82;101070.38;5033813;28;20032;-33
2022/10/08 09:15:28;;;;;;;4.93;2.35;;;;;;;13.66;66.41;101073.84;5051017;28;20078;-33
2022/10/08 09:17:54;;;;;;;5.00;2.22;;;;;;;13.68;66.46;101075.59;5064065;28;20028;-33
2022/10/08 09:20:23;;;;;;;6.43;2.35;;;;;;;13.70;66.14;101073.78;5055880;28;20070;-33
2022/10/08 09:22:49;;;;;;;4.72;2.08;;;;;;;13.72;65.99;101077.28;5060614;28;20029;-33
2022/10/08 09:25:20;;;;;;;6.13;2.53;;;;;;;13.75;66.03;101080.78;5058108;28;20021;-33
2022/10/08 09:28:03;;;;;;;6.38;2.28;;;;;;;13.72;65.88;101087.88;5059494;28;20032;-33
2022/10/08 09:30:38;;;;;;;6.63;2.50;;;;;;;13.77;65.74;101084.28;5032917;28;20036;-33
2022/10/08 09:33:12;;;;;;;6.85;2.75;;;;;;;13.80;65.76;101090.41;5052050;28;20024;-33
2022/10/08 09:35:43;;;;;;;6.63;2.92;;;;;;;13.83;65.85;101086.81;5051656;28;20028;-33
2022/10/08 09:38:51;;;;;;;7.10;2.30;;;;;;;13.83;66.01;101095.66;5051483;28;20097;-33
2022/10/08 09:41:18;;;;;;;6.55;2.70;;;;;;;13.87;66.00;101096.47;5019021;28;20045;-33
2022/10/08 09:43:44;;;;;;;4.68;2.50;;;;;;;13.91;65.54;101097.31;5061640;28;20056;-33
2022/10/08 09:46:31;;;;;;;8.65;2.60;;;;;;;13.93;65.82;101098.16;5037041;28;20079;-33
2022/10/08 09:49:19;;;;;;;5.32;2.50;;;;;;;13.94;65.72;101092.81;5052496;28;20045;-32
2022/10/08 09:51:44;;;;;;;7.60;2.42;;;;;;;13.98;65.51;101102.47;5051496;28;20476;-32
2022/10/08 09:54:12;;;;;;;6.38;2.45;;;;;;;14.00;65.66;101101.59;5050893;28;20025;-33
2022/10/08 09:56:37;;;;;;;7.65;2.78;;;;;;;14.03;65.29;101099.75;5024090;28;20048;-33
2022/10/08 09:59:04;;;;;;;6.18;2.85;;;;;;;14.06;65.47;101096.16;5041828;28;20483;-33
2022/10/08 10:01:30;;;;;;;8.25;2.60;;;;;;;14.08;65.45;101100.53;5062598;28;20410;-33
2022/10/08 10:03:56;;;;;;;6.90;2.42;;;;;;;14.10;66.19;101097.88;5015433;28;20484;-32
2022/10/08 10:06:32;;;;;;;5.90;2.30;;;;;;;14.11;65.98;101097.84;5043318;28;20025;-32
2022/10/08 10:09:09;;;;;;;5.55;2.45;;;;;;;14.15;66.45;101096.03;5039312;28;20028;-32
2022/10/08 10:11:51;;;;;;;4.93;2.10;;;;;;;14.20;65.68;101104.78;5051620;28;20025;-32
2022/10/08 10:14:35;;;;;;;5.85;2.20;;;;;;;14.22;66.12;101097.69;5033528;28;20102;-32
2022/10/08 10:17:34;;;;;;;7.97;2.50;;;;;;;14.29;66.26;101102.84;5051410;28;20033;-32
2022/10/08 10:20:12;;;;;;;5.50;2.38;;;;;;;14.33;66.23;101108.09;5027442;28;20029;-33
2022/10/08 10:23:06;;;;;;;5.85;2.25;;;;;;;14.36;65.93;101107.16;5055794;28;20445;-32
2022/10/08 10:25:42;;;;;;;5.43;2.38;;;;;;;14.40;65.89;101103.53;5054449;28;20021;-32
2022/10/08 10:28:22;;;;;;;4.75;2.20;;;;;;;14.46;65.77;101111.41;5053410;28;20355;-31
2022/10/08 10:30:57;;;;;;;5.53;2.22;;;;;;;14.51;65.48;101106.00;5035453;28;20032;-32
2022/10/08 10:33:29;;;;;;;4.82;2.30;;;;;;;14.53;65.21;101108.59;5019329;28;20021;-32
2022/10/08 10:35:58;;;;;;;5.57;2.40;;;;;;;14.52;65.30;101106.88;5042254;28;20050;-33
2022/10/08 10:38:24;;;;;;;5.45;2.00;;;;;;;14.56;64.90;101104.13;5062670;28;20078;-33
2022/10/08 10:41:42;;;;;;;3.78;1.90;;;;;;;14.59;64.82;101111.16;5054547;28;20025;-33
2022/10/08 10:44:12;;;;;;;5.45;1.85;;;;;;;14.62;64.38;101116.41;5031011;28;20087;-33
2022/10/08 10:46:48;;;;;;;5.78;2.05;;;;;;;14.63;64.13;101107.53;5053458;28;20025;-33
2022/10/08 10:49:21;;;;;;;5.75;1.88;;;;;;;14.64;64.19;101114.59;5045127;28;20093;-33
2022/10/08 10:52:05;;;;;;;5.30;2.17;;;;;;;14.68;64.29;101104.81;5064531;28;21700;-33
2022/10/08 10:54:33;;;;;;;8.18;2.00;;;;;;;14.69;64.10;101102.13;5054017;28;20017;-33
2022/10/08 10:57:32;;;;;;;4.68;2.10;;;;;;;14.72;64.13;101112.69;5054269;28;20092;-33
2022/10/08 11:00:19;;;;;;;3.85;1.92;;;;;;;14.74;64.09;101108.22;5052440;28;20395;-33
2022/10/08 11:03:11;;;;;;;3.90;1.80;;;;;;;14.75;63.89;101112.59;5051253;28;20051;-33
2022/10/08 11:05:38;;;;;;;4.70;1.80;;;;;;;14.77;63.61;101109.97;5024587;28;20032;-33
2022/10/08 11:08:11;;;;;;;4.00;1.58;;;;;;;14.79;63.77;101112.59;5053658;28;20395;-33
2022/10/08 11:10:41;;;;;;;4.30;1.75;;;;;;;14.81;63.75;101116.09;5036243;28;20033;-33
2022/10/08 11:13:38;;;;;;;2.85;1.27;;;;;;;14.80;63.92;101114.34;5053777;28;20080;-33
2022/10/08 11:16:32;;;;;;;5.60;1.80;;;;;;;14.80;64.06;101119.66;5059893;28;20424;-32
2022/10/08 11:19:00;;;;;;;3.85;1.60;;;;;;;14.82;64.11;101117.84;5022485;28;20045;-33
2022/10/08 11:21:44;;;;;;;3.60;1.38;;;;;;;14.82;64.26;101118.72;5042007;28;20082;-33
2022/10/08 11:24:54;;;;;;;4.38;1.58;;;;;;;14.86;64.13;101122.19;5050746;28;20107;-32
2022/10/08 11:27:46;;;;;;;3.83;1.60;;;;;;;14.85;64.13;101123.09;4971548;28;20081;-33
2022/10/08 11:30:23;;;;;;;5.00;1.50;;;;;;;14.88;64.33;101115.06;4956203;28;20035;-33
2022/10/08 11:32:54;;;;;;;4.22;1.95;;;;;;;14.89;64.11;101108.84;5066639;28;20032;-33
2022/10/08 11:35:43;;;;;;;4.25;1.50;;;;;;;14.92;63.97;101114.09;5072244;28;20110;-33
2022/10/08 11:38:14;;;;;;;4.30;1.30;;;;;;;14.94;63.99;101128.22;5058583;28;20095;-33